Time;durP1;ratioP1;P1;durP2;ratioP2;P2;SDS_P1;SDS_P2;PMS_P1;PMS_P2;Temp;Humidity;BMP_temperature;BMP_pressure;BME280_temperature;BME280_humidity;BME280_pressure;Samples;Min_cycle;Max_cycle;Signal;HPM_P1;HPM_P2
2022/04/15 00:01:28;;;;;;;14.13;7.15;;;12.90;99.90;;;;;;5019878;28;20045;-64
2022/04/15 00:03:56;;;;;;;12.75;6.55;;;12.90;99.90;;;;;;5001831;28;20029;-65
2022/04/15 00:06:24;;;;;;;12.73;6.18;;;12.90;99.90;;;;;;5015870;28;20402;-64
2022/04/15 00:08:50;;;;;;;11.43;5.88;;;12.80;99.90;;;;;;5020660;28;20065;-65
2022/04/15 00:11:16;;;;;;;11.93;6.50;;;12.60;99.90;;;;;;5021152;28;20026;-63
2022/04/15 00:13:42;;;;;;;12.77;5.97;;;12.50;99.90;;;;;;5019239;28;20119;-64
2022/04/15 00:16:09;;;;;;;17.13;6.63;;;12.40;99.90;;;;;;5020047;28;20053;-64
2022/04/15 00:18:36;;;;;;;12.63;6.30;;;12.30;99.90;;;;;;5022121;28;20021;-64
2022/04/15 00:21:03;;;;;;;14.07;6.18;;;12.30;99.90;;;;;;5021575;28;20037;-65
2022/04/15 00:23:30;;;;;;;16.10;5.63;;;12.20;99.90;;;;;;5019086;28;20025;-64
2022/04/15 00:25:57;;;;;;;12.52;5.75;;;12.20;99.90;;;;;;5017561;28;20042;-64
2022/04/15 00:28:24;;;;;;;11.20;5.70;;;12.10;99.90;;;;;;5019026;28;20029;-64
2022/04/15 00:30:50;;;;;;;10.60;6.13;;;12.10;99.90;;;;;;5019368;28;20034;-64
2022/04/15 00:33:15;;;;;;;13.07;5.88;;;12.20;99.90;;;;;;5015465;28;20026;-63
2022/04/15 00:35:41;;;;;;;17.27;5.90;;;12.20;99.90;;;;;;5013526;28;20032;-63
2022/04/15 00:38:07;;;;;;;13.02;6.10;;;12.20;99.90;;;;;;5018212;28;20029;-63
2022/04/15 00:40:34;;;;;;;12.85;5.68;;;12.20;99.90;;;;;;5015969;28;20037;-65
2022/04/15 00:43:00;;;;;;;12.48;6.60;;;12.10;99.90;;;;;;5016978;28;20107;-64
2022/04/15 00:45:25;;;;;;;12.27;6.28;;;12.10;99.90;;;;;;5016597;28;20057;-63
2022/04/15 00:47:59;;;;;;;19.20;6.55;;;12.10;99.90;;;;;;5020003;28;20768;-62
2022/04/15 00:50:30;;;;;;;12.88;6.22;;;12.10;99.90;;;;;;5023025;28;20038;-63
2022/04/15 00:52:59;;;;;;;15.07;6.60;;;12.20;99.90;;;;;;5022757;28;20048;-62
2022/04/15 00:55:25;;;;;;;13.48;6.60;;;12.20;99.90;;;;;;5016086;28;20030;-63
2022/04/15 00:57:57;;;;;;;13.18;6.07;;;12.10;99.90;;;;;;5024189;28;20026;-64
2022/04/15 01:00:25;;;;;;;14.43;6.50;;;11.90;99.90;;;;;;5013065;28;20056;-63
2022/04/15 01:02:51;;;;;;;13.30;6.25;;;11.90;99.90;;;;;;5017960;28;20028;-63
2022/04/15 01:05:18;;;;;;;13.52;6.82;;;11.90;99.90;;;;;;5016440;28;20067;-62
2022/04/15 01:07:48;;;;;;;13.88;6.00;;;11.90;99.90;;;;;;5012220;28;20457;-63
2022/04/15 01:10:15;;;;;;;14.98;6.50;;;11.90;99.90;;;;;;5014191;28;20032;-63
2022/04/15 01:12:44;;;;;;;14.05;6.72;;;11.90;99.90;;;;;;5018545;28;20120;-64
2022/04/15 01:15:13;;;;;;;11.05;6.10;;;12.00;99.90;;;;;;5013254;28;20033;-62
2022/04/15 01:17:39;;;;;;;11.02;5.45;;;12.00;99.90;;;;;;5013822;28;20030;-63
2022/04/15 01:20:10;;;;;;;12.63;5.95;;;12.00;99.90;;;;;;5024818;28;20057;-64
2022/04/15 01:22:36;;;;;;;;;;;12.10;99.90;;;;;;5023850;28;20025;-64
2022/04/15 01:25:03;;;;;;;11.90;5.82;;;12.10;99.90;;;;;;5014544;28;19913;-64
2022/04/15 01:27:34;;;;;;;11.90;5.93;;;12.00;99.90;;;;;;5019507;28;20390;-63
2022/04/15 01:30:00;;;;;;;11.95;5.63;;;11.90;99.90;;;;;;5019414;28;20466;-63
2022/04/15 01:32:25;;;;;;;14.73;5.95;;;11.80;99.90;;;;;;5015888;28;20056;-63
2022/04/15 01:34:51;;;;;;;11.98;6.22;;;11.70;99.90;;;;;;5017307;28;20113;-63
2022/04/15 01:37:21;;;;;;;11.88;5.65;;;11.80;99.90;;;;;;5019871;28;20466;-62
2022/04/15 01:39:47;;;;;;;11.48;6.10;;;11.80;99.90;;;;;;5018954;28;20094;-63
2022/04/15 01:42:14;;;;;;;13.55;6.40;;;11.90;99.90;;;;;;5021905;28;20359;-63
2022/04/15 01:44:40;;;;;;;11.38;5.32;;;12.00;99.90;;;;;;4995872;28;20109;-63
2022/04/15 01:47:07;;;;;;;12.10;5.57;;;11.80;99.90;;;;;;5010679;28;20029;-64
2022/04/15 01:49:33;;;;;;;8.80;5.28;;;11.80;99.90;;;;;;5010813;28;20423;-62
2022/04/15 01:51:58;;;;;;;12.18;6.13;;;11.70;99.90;;;;;;5015454;28;20037;-63
2022/04/15 01:54:24;;;;;;;12.30;5.82;;;11.60;99.90;;;;;;5016478;28;20064;-63
2022/04/15 01:56:50;;;;;;;15.52;6.28;;;11.50;99.90;;;;;;5015603;28;20032;-64
2022/04/15 01:59:16;;;;;;;12.75;6.05;;;11.60;99.90;;;;;;5018088;28;20434;-63
2022/04/15 02:01:41;;;;;;;12.73;6.45;;;11.60;99.90;;;;;;5014240;28;20040;-63
2022/04/15 02:04:07;;;;;;;14.45;6.15;;;11.70;99.90;;;;;;5024433;28;20043;-62
2022/04/15 02:06:33;;;;;;;13.98;6.18;;;11.60;99.90;;;;;;5017799;28;20105;-63
2022/04/15 02:08:58;;;;;;;11.82;6.25;;;11.70;99.90;;;;;;5012417;28;20030;-64
2022/04/15 02:11:24;;;;;;;13.20;6.68;;;11.70;99.90;;;;;;5018175;28;20033;-62
2022/04/15 02:13:50;;;;;;;12.65;5.90;;;11.60;99.90;;;;;;5009857;28;20041;-63
2022/04/15 02:16:16;;;;;;;13.77;6.40;;;11.70;99.90;;;;;;5026124;28;20052;-63
2022/04/15 02:18:42;;;;;;;16.00;6.10;;;11.60;99.90;;;;;;5009994;28;20748;-63
2022/04/15 02:21:07;;;;;;;13.38;6.57;;;11.50;99.90;;;;;;5026603;28;20073;-64
2022/04/15 02:23:33;;;;;;;11.40;6.00;;;11.40;99.90;;;;;;5015049;28;20450;-63
2022/04/15 02:25:59;;;;;;;13.48;5.78;;;11.40;99.90;;;;;;5008595;28;20524;-63
2022/04/15 02:28:24;;;;;;;13.75;6.13;;;11.40;99.90;;;;;;5015165;28;20025;-62
2022/04/15 02:30:50;;;;;;;14.40;6.40;;;11.40;99.90;;;;;;5018000;28;20073;-63
2022/04/15 02:33:16;;;;;;;19.08;6.32;;;11.40;99.90;;;;;;5015311;28;20026;-63
2022/04/15 02:35:41;;;;;;;12.70;6.13;;;11.40;99.90;;;;;;5014643;28;20533;-63
2022/04/15 02:38:07;;;;;;;12.57;6.22;;;11.40;99.90;;;;;;5010769;28;20034;-64
2022/04/15 02:40:33;;;;;;;10.73;5.40;;;11.30;99.90;;;;;;5014632;28;20141;-62
2022/04/15 02:43:00;;;;;;;14.45;6.07;;;11.20;99.90;;;;;;5014071;28;20683;-64
2022/04/15 02:45:28;;;;;;;10.70;5.78;;;11.20;99.90;;;;;;5017775;28;20045;-62
2022/04/15 02:47:54;;;;;;;9.85;5.63;;;11.30;99.90;;;;;;5015526;28;20083;-64
2022/04/15 02:50:19;;;;;;;12.05;6.07;;;11.30;99.90;;;;;;5013480;28;20458;-64
2022/04/15 02:52:45;;;;;;;11.40;5.72;;;11.30;99.90;;;;;;5007927;28;20034;-64
2022/04/15 02:55:11;;;;;;;12.02;6.18;;;11.20;99.90;;;;;;4998282;28;20030;-64
2022/04/15 02:57:37;;;;;;;15.95;6.50;;;11.20;99.90;;;;;;5009355;28;20741;-62
2022/04/15 03:00:04;;;;;;;13.40;6.28;;;11.00;99.90;;;;;;5022629;28;20030;-62
2022/04/15 03:02:32;;;;;;;13.90;7.13;;;10.90;99.90;;;;;;5024830;28;20473;-63
2022/04/15 03:04:58;;;;;;;14.77;6.72;;;10.80;99.90;;;;;;5028758;28;20044;-64
2022/04/15 03:07:23;;;;;;;12.43;7.00;;;10.70;99.90;;;;;;5027635;28;20038;-64
2022/04/15 03:09:49;;;;;;;12.13;6.20;;;10.70;99.90;;;;;;5016701;28;20029;-62
2022/04/15 03:12:15;;;;;;;14.90;6.50;;;10.70;99.90;;;;;;5018166;28;20112;-64
2022/04/15 03:14:41;;;;;;;14.10;6.00;;;10.70;99.90;;;;;;5021650;28;20501;-64
2022/04/15 03:17:07;;;;;;;10.88;5.82;;;10.60;99.90;;;;;;5017815;28;20379;-63
2022/04/15 03:19:33;;;;;;;14.38;6.68;;;10.60;99.90;;;;;;5019730;28;20040;-64
2022/04/15 03:21:58;;;;;;;12.60;6.32;;;10.60;99.90;;;;;;5021594;28;20103;-64
2022/04/15 03:24:24;;;;;;;11.40;6.20;;;10.50;99.90;;;;;;5002903;28;20034;-62
2022/04/15 03:26:50;;;;;;;12.00;6.18;;;10.30;99.90;;;;;;5017215;28;20030;-65
2022/04/15 03:29:15;;;;;;;11.95;6.03;;;10.20;99.90;;;;;;5024341;28;20354;-64
2022/04/15 03:31:41;;;;;;;11.90;6.47;;;10.10;99.90;;;;;;5021949;28;20168;-64
2022/04/15 03:34:07;;;;;;;13.00;6.43;;;10.10;99.90;;;;;;5018219;28;20033;-64
2022/04/15 03:36:33;;;;;;;11.10;5.80;;;10.00;99.90;;;;;;5028842;28;20109;-63
2022/04/15 03:38:59;;;;;;;10.23;5.45;;;10.00;99.90;;;;;;5014916;28;20030;-63
2022/04/15 03:41:24;;;;;;;14.77;6.40;;;9.90;99.90;;;;;;5012749;28;20053;-63
2022/04/15 03:43:50;;;;;;;13.13;6.50;;;9.90;99.90;;;;;;5014924;28;20034;-63
2022/04/15 03:46:16;;;;;;;11.05;5.95;;;9.90;99.90;;;;;;5017065;28;20036;-64
2022/04/15 03:48:42;;;;;;;12.93;6.05;;;9.90;99.90;;;;;;5013851;28;20049;-64
2022/04/15 03:51:08;;;;;;;13.52;6.03;;;9.80;99.90;;;;;;5020899;28;20385;-63
2022/04/15 03:53:35;;;;;;;13.48;5.93;;;9.80;99.90;;;;;;5028459;28;20061;-64
2022/04/15 03:56:00;;;;;;;11.52;5.90;;;9.80;99.90;;;;;;5014764;28;20025;-64
2022/04/15 03:58:26;;;;;;;13.93;6.22;;;9.80;99.90;;;;;;5016355;28;20036;-62
2022/04/15 04:00:53;;;;;;;12.75;6.30;;;9.70;99.90;;;;;;5013639;28;20057;-63
2022/04/15 04:03:19;;;;;;;13.77;5.88;;;9.60;99.90;;;;;;5019373;28;20104;-64
2022/04/15 04:05:45;;;;;;;11.60;6.05;;;9.60;99.90;;;;;;5011724;28;20107;-64
2022/04/15 04:08:11;;;;;;;12.00;6.07;;;9.50;99.90;;;;;;5028508;28;20509;-64
2022/04/15 04:10:37;;;;;;;13.93;6.50;;;9.40;99.90;;;;;;5024663;28;20040;-64
2022/04/15 04:13:03;;;;;;;12.73;6.88;;;9.50;99.90;;;;;;5023139;28;20505;-64
2022/04/15 04:15:30;;;;;;;13.35;6.15;;;9.50;99.90;;;;;;5015513;28;20064;-62
2022/04/15 04:17:56;;;;;;;10.50;6.03;;;9.50;99.90;;;;;;5019162;28;20064;-64
2022/04/15 04:20:22;;;;;;;12.18;6.72;;;9.50;99.90;;;;;;5015825;28;20030;-64
2022/04/15 04:22:48;;;;;;;13.90;6.20;;;9.50;99.90;;;;;;5011925;28;20387;-64
2022/04/15 04:25:14;;;;;;;14.07;6.70;;;9.50;99.90;;;;;;5016120;28;20037;-66
2022/04/15 04:27:41;;;;;;;12.93;6.07;;;9.50;99.90;;;;;;4997682;28;20034;-64
2022/04/15 04:30:09;;;;;;;12.10;6.25;;;9.50;99.90;;;;;;5014627;28;20103;-64
2022/04/15 04:32:35;;;;;;;11.77;6.30;;;9.40;99.90;;;;;;5022729;28;20038;-63
2022/04/15 04:35:02;;;;;;;12.27;6.57;;;9.40;99.90;;;;;;5019133;28;20034;-64
2022/04/15 04:37:27;;;;;;;13.18;6.28;;;9.50;99.90;;;;;;5022020;28;20040;-64
2022/04/15 04:39:53;;;;;;;12.40;6.40;;;9.60;99.90;;;;;;5017128;28;20965;-63
2022/04/15 04:42:21;;;;;;;14.43;6.70;;;9.50;99.90;;;;;;5018573;28;20033;-65
2022/04/15 04:44:46;;;;;;;12.05;6.43;;;9.60;99.90;;;;;;5019859;28;20363;-65
2022/04/15 04:47:12;;;;;;;12.75;6.45;;;9.60;99.90;;;;;;5016487;28;20083;-65
2022/04/15 04:49:38;;;;;;;11.50;6.07;;;9.60;99.90;;;;;;5008025;28;20036;-65
2022/04/15 04:52:06;;;;;;;12.88;6.15;;;9.40;99.90;;;;;;5010122;28;20516;-64
2022/04/15 04:54:31;;;;;;;14.48;6.30;;;9.30;99.90;;;;;;5004601;28;20120;-63
2022/04/15 04:56:58;;;;;;;11.10;5.85;;;9.40;99.90;;;;;;5015198;28;20085;-65
2022/04/15 04:59:25;;;;;;;14.23;5.95;;;9.40;99.90;;;;;;5013527;28;20037;-64
2022/04/15 05:01:54;;;;;;;13.05;6.28;;;9.40;99.90;;;;;;5021372;28;20034;-64
2022/04/15 05:04:20;;;;;;;13.07;6.07;;;9.30;99.90;;;;;;5014008;28;20461;-64
2022/04/15 05:06:45;;;;;;;15.88;6.07;;;9.30;99.90;;;;;;5015269;28;20026;-64
2022/04/15 05:09:11;;;;;;;12.27;6.70;;;9.40;99.90;;;;;;5022403;28;20055;-64
2022/04/15 05:11:37;;;;;;;12.55;6.28;;;9.40;99.90;;;;;;5014753;28;20041;-64
2022/04/15 05:14:02;;;;;;;12.63;6.05;;;9.40;99.90;;;;;;5016267;28;20038;-64
2022/04/15 05:16:28;;;;;;;13.65;6.50;;;9.40;99.90;;;;;;5012200;28;20428;-65
2022/04/15 05:18:54;;;;;;;13.70;6.15;;;9.40;99.90;;;;;;5014925;28;20121;-64
2022/04/15 05:21:20;;;;;;;12.75;5.45;;;9.30;99.90;;;;;;5017366;28;20038;-64
2022/04/15 05:23:48;;;;;;;14.25;6.57;;;9.40;99.90;;;;;;5018041;28;20104;-63
2022/04/15 05:26:14;;;;;;;14.13;6.55;;;9.60;99.90;;;;;;5022615;28;20037;-64
2022/04/15 05:28:41;;;;;;;15.45;6.55;;;9.70;99.90;;;;;;5012184;28;20053;-64
2022/04/15 05:31:08;;;;;;;10.68;6.00;;;9.80;99.90;;;;;;5018503;28;20029;-63
2022/04/15 05:33:33;;;;;;;12.75;5.82;;;9.90;99.90;;;;;;5009688;28;20034;-62
2022/04/15 05:35:59;;;;;;;11.45;6.25;;;10.00;99.90;;;;;;5013646;28;20496;-64
2022/04/15 05:38:25;;;;;;;11.23;6.38;;;10.00;99.90;;;;;;5015964;28;20021;-65
2022/04/15 05:40:50;;;;;;;14.65;6.40;;;10.10;99.90;;;;;;5013836;28;20041;-64
2022/04/15 05:43:16;;;;;;;13.48;6.95;;;10.20;99.90;;;;;;5018188;28;20026;-62
2022/04/15 05:45:42;;;;;;;12.80;6.10;;;10.30;99.90;;;;;;5015016;28;20037;-61
2022/04/15 05:48:08;;;;;;;14.73;5.97;;;10.40;99.90;;;;;;5023566;28;20029;-62
2022/04/15 05:50:34;;;;;;;14.68;6.30;;;10.50;99.90;;;;;;5022993;28;20060;-62
2022/04/15 05:52:59;;;;;;;11.07;6.20;;;10.50;99.90;;;;;;5020270;28;20061;-63
2022/04/15 05:55:25;;;;;;;11.15;6.18;;;10.60;99.90;;;;;;5016164;28;20053;-62
2022/04/15 05:57:51;;;;;;;11.32;6.03;;;10.70;99.90;;;;;;5017065;28;20025;-62
2022/04/15 06:00:17;;;;;;;13.80;6.40;;;10.60;99.90;;;;;;5020696;28;20034;-62
2022/04/15 06:02:43;;;;;;;13.30;5.95;;;10.60;99.90;;;;;;5017688;28;20481;-61
2022/04/15 06:05:09;;;;;;;12.77;6.50;;;10.50;99.90;;;;;;5017407;28;20026;-62
2022/04/15 06:07:35;;;;;;;11.90;5.97;;;10.60;99.90;;;;;;5015127;28;20070;-61
2022/04/15 06:10:01;;;;;;;12.32;6.55;;;10.70;99.90;;;;;;5014170;28;20036;-61
2022/04/15 06:15:23;;;;;;;9.77;5.68;;;10.70;99.90;;;;;;5011028;28;20197;-62
2022/04/15 06:17:50;;;;;;;13.27;6.25;;;10.80;99.90;;;;;;5016782;28;20543;-62
2022/04/15 06:20:19;;;;;;;12.35;6.07;;;10.90;99.90;;;;;;5015199;28;20394;-62
2022/04/15 06:22:45;;;;;;;10.70;5.82;;;11.10;99.90;;;;;;5008304;28;20030;-62
2022/04/15 06:25:11;;;;;;;10.02;5.38;;;11.20;99.90;;;;;;5018955;28;20037;-63
2022/04/15 06:27:37;;;;;;;12.68;6.20;;;11.30;99.90;;;;;;5020813;28;20022;-62
2022/04/15 06:30:04;;;;;;;11.35;6.68;;;11.40;99.90;;;;;;5012405;28;20389;-62
2022/04/15 06:32:30;;;;;;;14.48;6.35;;;11.50;99.90;;;;;;5013833;28;20030;-63
2022/04/15 06:34:55;;;;;;;12.20;6.22;;;11.70;99.90;;;;;;5018862;28;20238;-63
2022/04/15 06:37:21;;;;;;;13.13;7.22;;;11.80;99.90;;;;;;5028358;28;20080;-63
2022/04/15 06:39:50;;;;;;;21.15;7.03;;;12.00;99.90;;;;;;5019133;28;20073;-62
2022/04/15 06:42:22;;;;;;;13.63;7.18;;;12.20;99.90;;;;;;5009408;28;20026;-62
2022/04/15 06:44:49;;;;;;;15.82;7.47;;;12.40;99.90;;;;;;5008515;28;20045;-62
2022/04/15 06:47:15;;;;;;;13.73;7.13;;;12.70;99.90;;;;;;5013130;28;20080;-62
2022/04/15 06:49:42;;;;;;;15.73;7.53;;;12.90;99.90;;;;;;5012326;28;20017;-62
2022/04/15 06:52:08;;;;;;;16.38;8.02;;;13.10;99.90;;;;;;5008943;28;20038;-62
2022/04/15 06:54:34;;;;;;;17.52;8.70;;;13.20;99.90;;;;;;5009448;28;20480;-62
2022/04/15 06:56:59;;;;;;;18.02;7.95;;;13.10;99.90;;;;;;5016130;28;20649;-62
2022/04/15 06:59:25;;;;;;;13.13;7.38;;;13.20;99.90;;;;;;5009089;28;20029;-62
2022/04/15 07:01:50;;;;;;;14.85;7.68;;;13.20;99.90;;;;;;5013378;28;20030;-63
2022/04/15 07:04:16;;;;;;;17.05;8.38;;;13.30;99.90;;;;;;4991858;28;20026;-62
2022/04/15 07:06:43;;;;;;;17.55;9.30;;;13.40;99.90;;;;;;5008459;28;20803;-62
2022/04/15 07:09:09;;;;;;;15.32;8.40;;;13.30;99.90;;;;;;5016762;28;20030;-62
2022/04/15 07:11:34;;;;;;;15.98;8.07;;;13.40;99.90;;;;;;4991632;28;20038;-62
2022/04/15 07:14:00;;;;;;;17.38;8.35;;;13.60;99.90;;;;;;4990552;28;20077;-62
2022/04/15 07:16:26;;;;;;;14.68;8.23;;;13.70;99.90;;;;;;5025164;28;20060;-62
2022/04/15 07:18:54;;;;;;;14.98;8.15;;;13.70;99.90;;;;;;5016132;28;20030;-62
2022/04/15 07:21:21;;;;;;;16.42;8.25;;;13.80;99.90;;;;;;5018707;28;20033;-62
2022/04/15 07:23:47;;;;;;;16.20;8.05;;;13.80;99.90;;;;;;5019001;28;20025;-62
2022/04/15 07:26:12;;;;;;;18.67;7.88;;;14.00;99.90;;;;;;4993672;28;20041;-62
2022/04/15 07:28:39;;;;;;;15.80;7.85;;;14.10;99.90;;;;;;5009300;28;20030;-62
2022/04/15 07:31:05;;;;;;;15.60;7.72;;;14.20;99.90;;;;;;5007967;28;20173;-63
2022/04/15 07:33:31;;;;;;;13.00;6.82;;;14.30;99.90;;;;;;4999402;28;20110;-63
2022/04/15 07:35:56;;;;;;;16.25;6.85;;;14.30;99.90;;;;;;5008212;28;20485;-63
2022/04/15 07:38:23;;;;;;;17.23;7.47;;;14.40;99.90;;;;;;5007137;28;20041;-63
2022/04/15 07:40:49;;;;;;;11.52;5.63;;;14.50;99.90;;;;;;5020000;28;20056;-62
2022/04/15 07:43:14;;;;;;;15.73;6.20;;;14.60;99.90;;;;;;5010453;28;20087;-63
2022/04/15 07:45:40;;;;;;;9.15;5.60;;;14.80;99.90;;;;;;5022521;28;20029;-63
2022/04/15 07:48:06;;;;;;;14.00;6.43;;;15.00;99.90;;;;;;5010297;28;20181;-63
2022/04/15 07:50:32;;;;;;;12.23;5.90;;;15.10;99.90;;;;;;5013308;28;20042;-63
2022/04/15 07:52:59;;;;;;;11.40;5.60;;;15.20;99.90;;;;;;5011432;28;20108;-62
2022/04/15 07:55:26;;;;;;;10.23;5.82;;;15.20;99.90;;;;;;5002538;28;20033;-63
2022/04/15 07:57:52;;;;;;;15.70;6.40;;;15.40;99.90;;;;;;5012584;28;20034;-62
2022/04/15 08:00:19;;;;;;;12.82;6.45;;;15.50;99.90;;;;;;5012118;28;20370;-63
2022/04/15 08:02:44;;;;;;;12.95;6.32;;;15.40;99.90;;;;;;5021492;28;20038;-62
2022/04/15 08:05:10;;;;;;;8.18;4.97;;;15.60;99.90;;;;;;5017728;28;20038;-63
2022/04/15 08:07:36;;;;;;;8.65;4.20;;;15.60;99.90;;;;;;5020377;28;20038;-63
2022/04/15 08:10:03;;;;;;;8.00;4.57;;;15.70;99.90;;;;;;5010817;28;20061;-63
2022/04/15 08:12:29;;;;;;;8.93;4.35;;;15.90;99.90;;;;;;5011766;28;20042;-63
2022/04/15 08:14:55;;;;;;;8.20;4.47;;;16.10;99.90;;;;;;5018637;28;20034;-62
2022/04/15 08:17:21;;;;;;;8.48;4.82;;;16.20;99.90;;;;;;5017938;28;20033;-63
2022/04/15 08:19:47;;;;;;;10.45;4.70;;;16.30;99.90;;;;;;5012261;28;20401;-63
2022/04/15 08:22:12;;;;;;;11.63;5.63;;;16.50;99.90;;;;;;5016364;28;20041;-63
2022/04/15 08:24:43;;;;;;;9.90;5.25;;;16.70;99.90;;;;;;5015087;28;20025;-63
2022/04/15 08:27:12;;;;;;;12.20;5.80;;;16.80;99.90;;;;;;5011061;28;20037;-62
2022/04/15 08:29:39;;;;;;;10.65;5.65;;;16.80;99.90;;;;;;5005166;28;20037;-63
2022/04/15 08:32:08;;;;;;;9.55;5.47;;;16.80;99.90;;;;;;5011422;28;20040;-63
2022/04/15 08:34:37;;;;;;;13.67;5.87;;;16.80;99.90;;;;;;5019509;28;20397;-63
2022/04/15 08:37:04;;;;;;;10.68;5.15;;;16.80;99.90;;;;;;5010360;28;20037;-63
2022/04/15 08:39:30;;;;;;;7.95;5.05;;;16.80;99.90;;;;;;5010907;28;20494;-62
2022/04/15 08:41:58;;;;;;;10.75;4.90;;;16.70;99.90;;;;;;5018811;28;20076;-63
2022/04/15 08:44:25;;;;;;;12.35;5.20;;;16.80;99.90;;;;;;5015848;28;20045;-63
2022/04/15 08:46:51;;;;;;;9.45;5.43;;;16.90;99.90;;;;;;5013499;28;20422;-63
2022/04/15 08:49:19;;;;;;;10.52;6.20;;;17.10;99.90;;;;;;5011154;28;20389;-63
2022/04/15 08:51:52;;;;;;;13.35;5.95;;;17.40;99.90;;;;;;5010719;28;20038;-63
2022/04/15 08:54:21;;;;;;;11.48;5.63;;;17.60;99.90;;;;;;5010606;28;20034;-63
2022/04/15 08:56:47;;;;;;;11.85;5.10;;;17.60;99.90;;;;;;5023974;28;20022;-63
2022/04/15 08:59:16;;;;;;;15.68;7.25;;;17.50;99.90;;;;;;5013023;28;20478;-63
2022/04/15 09:01:43;;;;;;;15.60;7.75;;;17.60;99.90;;;;;;5025220;28;20104;-63
2022/04/15 09:04:09;;;;;;;20.67;7.75;;;17.80;99.90;;;;;;5010607;28;20534;-63
2022/04/15 09:06:35;;;;;;;11.77;6.70;;;17.60;99.90;;;;;;5025070;28;20106;-63
2022/04/15 09:09:11;;;;;;;13.30;7.00;;;17.60;99.90;;;;;;5025566;28;20453;-63
2022/04/15 09:11:38;;;;;;;15.57;7.63;;;17.40;99.90;;;;;;5011057;28;20045;-63
2022/04/15 09:14:10;;;;;;;14.93;7.57;;;17.40;99.90;;;;;;5010216;28;20033;-63
2022/04/15 09:16:42;;;;;;;12.20;6.82;;;17.10;99.90;;;;;;5010340;28;20096;-63
2022/04/15 09:19:09;;;;;;;11.23;6.75;;;16.90;99.90;;;;;;5009821;28;20101;-63
2022/04/15 09:21:35;;;;;;;14.63;8.25;;;16.90;99.90;;;;;;5010733;28;20125;-63
2022/04/15 09:24:01;;;;;;;14.07;7.85;;;16.90;99.90;;;;;;5017762;28;20026;-63
2022/04/15 09:26:27;;;;;;;13.50;7.75;;;16.90;99.90;;;;;;5010451;28;20045;-63
2022/04/15 09:28:54;;;;;;;15.70;9.27;;;16.90;99.90;;;;;;5009673;28;20033;-63
2022/04/15 09:31:21;;;;;;;17.88;10.27;;;17.20;99.90;;;;;;5010147;28;20401;-63
2022/04/15 09:33:51;;;;;;;19.27;10.90;;;17.40;99.90;;;;;;5010198;28;20036;-63
2022/04/15 09:36:32;;;;;;;22.35;11.77;;;17.70;99.90;;;;;;5025675;28;20386;-63
2022/04/15 09:39:10;;;;;;;21.17;11.15;;;18.00;99.90;;;;;;5009342;28;20157;-63
2022/04/15 09:41:40;;;;;;;25.08;11.95;;;18.50;99.90;;;;;;5010547;28;20029;-63
2022/04/15 09:44:10;;;;;;;22.40;12.73;;;18.90;99.90;;;;;;5009719;28;20060;-63
2022/04/15 09:46:35;;;;;;;22.97;12.53;;;19.40;99.90;;;;;;5010118;28;20533;-63
2022/04/15 09:49:03;;;;;;;21.05;12.05;;;19.70;99.90;;;;;;5009299;28;20038;-63
2022/04/15 09:51:43;;;;;;;21.77;10.50;;;19.80;99.90;;;;;;5010090;28;20037;-63
2022/04/15 09:54:18;;;;;;;17.58;10.18;;;19.80;99.90;;;;;;5009599;28;20096;-63
2022/04/15 09:56:46;;;;;;;16.27;10.40;;;19.90;99.90;;;;;;5010166;28;20038;-63
2022/04/15 09:59:15;;;;;;;15.73;9.60;;;20.10;99.90;;;;;;5009042;28;20815;-63
2022/04/15 10:01:45;;;;;;;15.25;9.63;;;19.90;99.90;;;;;;5012616;28;20454;-63
2022/04/15 10:04:13;;;;;;;18.08;11.02;;;19.80;99.90;;;;;;5009086;28;20040;-63
2022/04/15 10:06:41;;;;;;;17.95;9.63;;;19.60;99.90;;;;;;5017514;28;20030;-63
2022/04/15 10:09:14;;;;;;;15.23;8.30;;;19.80;99.90;;;;;;5009080;28;20105;-63
2022/04/15 10:11:43;;;;;;;14.75;8.88;;;20.20;99.90;;;;;;4998825;28;20527;-63
2022/04/15 10:14:11;;;;;;;14.55;8.15;;;20.10;94.10;;;;;;5028355;28;20267;-63
2022/04/15 10:16:40;;;;;;;16.35;7.93;;;20.00;94.70;;;;;;5014745;28;20077;-63
2022/04/15 10:19:07;;;;;;;15.20;8.65;;;20.20;91.60;;;;;;5011351;28;20029;-63
2022/04/15 10:21:35;;;;;;;13.02;8.43;;;20.10;94.60;;;;;;4993679;28;20145;-63
2022/04/15 10:24:02;;;;;;;13.23;7.72;;;20.40;97.40;;;;;;5015994;28;20025;-63
2022/04/15 10:26:52;;;;;;;15.05;8.65;;;20.50;93.80;;;;;;5017792;28;20089;-63
2022/04/15 10:29:18;;;;;;;13.65;8.90;;;20.20;93.10;;;;;;5012607;28;20053;-63
2022/04/15 10:31:45;;;;;;;11.90;7.45;;;20.00;93.30;;;;;;5014019;28;20072;-63
2022/04/15 10:34:16;;;;;;;13.93;7.68;;;19.80;92.40;;;;;;5008507;28;20502;-63
2022/04/15 10:36:45;;;;;;;;;;;19.70;91.80;;;;;;5016586;28;20036;-63
2022/04/15 10:39:12;;;;;;;14.88;8.02;;;19.60;93.70;;;;;;5018187;28;20497;-63
2022/04/15 10:41:41;;;;;;;13.35;8.60;;;19.60;93.50;;;;;;5018549;28;20033;-63
2022/04/15 10:44:14;;;;;;;14.57;8.77;;;19.40;91.20;;;;;;5019346;28;20021;-63
2022/04/15 10:46:40;;;;;;;15.50;9.10;;;19.10;94.50;;;;;;5015646;28;20029;-63
2022/04/15 10:50:15;;;;;;;14.45;9.18;;;19.30;99.20;;;;;;5003876;28;20062;-63
2022/04/15 10:52:41;;;;;;;20.27;9.35;;;19.60;93.10;;;;;;4924350;28;20054;-62
2022/04/15 10:55:08;;;;;;;13.35;8.32;;;19.70;92.90;;;;;;5008382;28;20034;-63
2022/04/15 10:57:46;;;;;;;14.45;9.25;;;20.10;94.30;;;;;;5015578;28;20072;-63
2022/04/15 11:03:18;;;;;;;16.13;8.77;;;21.00;94.80;;;;;;5021278;28;20037;-63
2022/04/15 11:05:44;;;;;;;12.60;7.90;;;20.70;91.40;;;;;;5009147;28;20018;-63
2022/04/15 11:08:51;;;;;;;15.18;9.48;;;20.20;90.10;;;;;;5017359;28;20088;-63
2022/04/15 11:11:18;;;;;;;10.55;6.18;;;20.30;98.40;;;;;;5016366;28;20034;-63
2022/04/15 11:13:44;;;;;;;12.27;7.22;;;21.00;95.70;;;;;;5013055;28;20029;-63
2022/04/15 11:16:14;;;;;;;11.65;7.60;;;21.70;92.80;;;;;;5012546;28;20384;-63
2022/04/15 11:18:51;;;;;;;12.45;7.20;;;22.00;85.80;;;;;;5009005;28;20034;-63
2022/04/15 11:21:19;;;;;;;13.18;7.88;;;22.30;91.20;;;;;;5024202;28;20046;-62
2022/04/15 11:23:49;;;;;;;12.40;8.18;;;22.40;83.80;;;;;;5002368;28;20076;-62
2022/04/15 11:26:15;;;;;;;11.98;8.48;;;22.30;73.00;;;;;;5011837;28;20034;-62
2022/04/15 11:28:45;;;;;;;12.20;7.38;;;22.00;77.00;;;;;;5012656;28;20038;-62
2022/04/15 11:31:24;;;;;;;10.97;7.87;;;22.00;78.10;;;;;;5011789;28;20037;-62
2022/04/15 11:33:52;;;;;;;14.67;8.20;;;22.30;89.30;;;;;;5012669;28;20026;-62
2022/04/15 11:36:18;;;;;;;11.85;7.38;;;22.30;80.50;;;;;;4994405;28;20033;-62
2022/04/15 11:38:49;;;;;;;10.30;7.35;;;22.20;83.10;;;;;;5020316;28;20441;-62
2022/04/15 11:41:18;;;;;;;14.30;8.05;;;22.30;82.10;;;;;;5011900;28;20029;-62
2022/04/15 11:44:04;;;;;;;13.80;8.70;;;22.30;86.20;;;;;;5012634;28;20061;-63
2022/04/15 11:46:36;;;;;;;13.95;7.38;;;22.30;80.30;;;;;;5020511;28;20034;-62
2022/04/15 11:49:23;;;;;;;12.20;7.82;;;22.50;76.20;;;;;;5014972;28;20469;-62
2022/04/15 11:52:07;;;;;;;16.45;9.23;;;21.90;79.20;;;;;;5018219;28;20042;-62
2022/04/15 11:54:40;;;;;;;14.93;8.77;;;21.80;84.30;;;;;;5016012;28;20068;-62
2022/04/15 11:57:07;;;;;;;13.52;8.10;;;22.20;88.50;;;;;;5011578;28;20105;-62
2022/04/15 11:59:39;;;;;;;15.40;7.05;;;22.40;81.80;;;;;;5019507;28;20752;-63
2022/04/15 12:02:06;;;;;;;13.95;8.82;;;22.60;79.30;;;;;;5019093;28;20034;-62
2022/04/15 12:04:31;;;;;;;13.65;9.48;;;22.80;73.70;;;;;;5012370;28;20050;-62
2022/04/15 12:06:57;;;;;;;14.23;8.15;;;22.80;73.20;;;;;;5001977;28;20599;-62
2022/04/15 12:09:25;;;;;;;13.10;8.48;;;22.90;70.80;;;;;;5017302;28;20037;-62
2022/04/15 12:11:52;;;;;;;9.68;6.47;;;22.60;66.00;;;;;;5013673;28;20113;-62
2022/04/15 12:14:18;;;;;;;10.38;7.20;;;22.60;76.80;;;;;;5015932;28;20056;-62
2022/04/15 12:16:45;;;;;;;12.88;7.40;;;22.50;63.60;;;;;;5004987;28;20046;-62
2022/04/15 12:19:12;;;;;;;11.70;7.07;;;22.30;74.50;;;;;;5011102;28;20041;-62
2022/04/15 12:21:38;;;;;;;11.68;7.07;;;22.60;80.30;;;;;;5011919;28;20038;-62
2022/04/15 12:24:07;;;;;;;11.57;7.47;;;22.80;78.20;;;;;;5010885;28;20037;-62
2022/04/15 12:26:41;;;;;;;13.90;7.88;;;22.40;68.60;;;;;;5014136;28;20025;-62
2022/04/15 12:31:51;;;;;;;9.73;6.15;;;21.80;70.10;;;;;;5021997;28;20076;-62
2022/04/15 12:34:17;;;;;;;10.65;6.10;;;21.90;73.90;;;;;;5009765;28;20057;-62
2022/04/15 12:36:46;;;;;;;8.75;5.28;;;21.40;74.80;;;;;;5011341;28;20030;-62
2022/04/15 12:39:13;;;;;;;11.43;6.18;;;21.50;73.30;;;;;;5010471;28;20021;-62
2022/04/15 12:41:46;;;;;;;7.15;5.00;;;21.70;64.10;;;;;;5018160;28;20703;-62
2022/04/15 12:44:14;;;;;;;9.88;4.97;;;21.20;68.40;;;;;;5010681;28;20440;-62
2022/04/15 12:46:44;;;;;;;10.13;5.60;;;21.60;79.10;;;;;;5026135;28;20052;-62
2022/04/15 12:49:24;;;;;;;8.60;4.90;;;21.80;70.80;;;;;;5010918;28;20038;-62